createdAt,value
2022-09-26T00:00:43.745Z,96165.69
2022-09-26T00:03:12.214Z,96164.88
2022-09-26T00:05:41.252Z,96175.38
2022-09-26T00:08:08.769Z,96171.16
2022-09-26T00:10:36.433Z,96169.72
2022-09-26T00:13:04.015Z,96164.28
2022-09-26T00:15:31.476Z,96167.94
2022-09-26T00:17:58.931Z,96160.28
2022-09-26T00:20:26.399Z,96160.28
2022-09-26T00:22:55.200Z,96157.88
2022-09-26T00:25:22.692Z,96162.09
2022-09-26T00:27:50.169Z,96150.78
2022-09-26T00:30:17.679Z,96151.03
2022-09-26T00:32:45.191Z,96151.22
2022-09-26T00:35:12.657Z,96150.44
2022-09-26T00:37:40.107Z,96146.19
2022-09-26T00:40:10.227Z,96150.03
2022-09-26T00:42:37.817Z,96146.63
2022-09-26T00:45:06.244Z,96147.44
2022-09-26T00:47:40.711Z,96145.00
2022-09-26T00:50:14.424Z,96141.81
2022-09-26T00:52:45.707Z,96143.84
2022-09-26T00:55:20.529Z,96144.66
2022-09-26T00:57:53.302Z,96141.22
2022-09-26T01:00:21.169Z,96138.00
2022-09-26T01:02:49.514Z,96136.38
2022-09-26T01:05:21.221Z,96128.53
2022-09-26T01:07:50.372Z,96133.19
2022-09-26T01:10:19.592Z,96131.59
2022-09-26T01:12:48.028Z,96131.00
2022-09-26T01:15:15.758Z,96126.16
2022-09-26T01:17:45.733Z,96130.59
2022-09-26T01:20:35.038Z,96127.19
2022-09-26T01:23:35.949Z,96128.22
2022-09-26T01:26:27.448Z,96125.78
2022-09-26T01:29:13.312Z,96121.78
2022-09-26T01:32:11.462Z,96116.94
2022-09-26T01:34:47.202Z,96118.94
2022-09-26T01:37:23.488Z,96121.19
2022-09-26T01:40:02.553Z,96125.00
2022-09-26T01:42:38.915Z,96127.06
2022-09-26T01:45:14.772Z,96125.44
2022-09-26T01:47:47.416Z,96135.91
2022-09-26T01:50:18.290Z,96135.13
2022-09-26T01:52:52.027Z,96137.94
2022-09-26T01:55:25.472Z,96132.91
2022-09-26T01:57:57.347Z,96132.91
2022-09-26T02:00:25.152Z,96133.72
2022-09-26T02:02:57.686Z,96128.50
2022-09-26T02:05:32.830Z,96129.50
2022-09-26T02:08:05.898Z,96138.38
2022-09-26T02:10:37.284Z,96141.19
2022-09-26T02:13:10.115Z,96139.59
2022-09-26T02:15:40.373Z,96132.13
2022-09-26T02:18:14.502Z,96137.38
2022-09-26T02:20:47.415Z,96139.19
2022-09-26T02:23:15.459Z,96135.19
2022-09-26T02:25:42.918Z,96131.19
2022-09-26T02:28:10.390Z,96132.78
2022-09-26T02:30:39.249Z,96136.41
2022-09-26T02:33:06.748Z,96134.59
2022-09-26T02:35:53.208Z,96130.56
2022-09-26T02:38:21.187Z,96137.00
2022-09-26T02:40:52.365Z,96132.00
2022-09-26T02:43:42.065Z,96135.63
2022-09-26T02:46:28.479Z,96136.84
2022-09-26T02:49:15.247Z,96138.06
2022-09-26T02:52:01.027Z,96132.22
2022-09-26T02:54:35.892Z,96126.41
2022-09-26T02:57:22.888Z,96123.19
2022-09-26T02:59:59.704Z,96122.19
2022-09-26T03:02:35.377Z,96119.56
2022-09-26T03:05:07.219Z,96116.94
2022-09-26T03:07:42.519Z,96125.59
2022-09-26T03:10:12.758Z,96118.75
2022-09-26T03:12:42.192Z,96120.75
2022-09-26T03:15:11.376Z,96119.97
2022-09-26T03:17:42.667Z,96113.13
2022-09-26T03:20:14.714Z,96122.59
2022-09-26T03:22:45.718Z,96112.34
2022-09-26T03:25:18.542Z,96103.66
2022-09-26T03:27:47.820Z,96112.53
2022-09-26T03:30:16.971Z,96112.53
2022-09-26T03:32:44.418Z,96105.47
2022-09-26T03:35:11.939Z,96097.84
2022-09-26T03:37:39.654Z,96092.59
2022-09-26T03:40:11.451Z,96088.97
2022-09-26T03:42:39.505Z,96085.56
2022-09-26T03:45:10.389Z,96081.31
2022-09-26T03:47:38.836Z,96073.28
2022-09-26T03:50:07.278Z,96075.31
2022-09-26T03:52:36.392Z,96071.28
2022-09-26T03:55:04.200Z,96069.66
2022-09-26T03:57:32.975Z,96073.09
2022-09-26T04:00:00.841Z,96062.63
2022-09-26T04:02:28.358Z,96063.44
2022-09-26T04:04:55.872Z,96053.56
2022-09-26T04:07:23.654Z,96048.53
2022-09-26T04:09:51.253Z,96051.16
2022-09-26T04:12:18.793Z,96045.31
2022-09-26T04:14:47.679Z,96041.91
2022-09-26T04:17:15.188Z,96047.13
2022-09-26T04:19:42.656Z,96044.72
2022-09-26T04:22:10.130Z,96046.34
2022-09-26T04:24:37.710Z,96041.91
2022-09-26T04:27:08.491Z,96032.22
2022-09-26T04:29:35.990Z,96031.22
2022-09-26T04:32:04.897Z,96034.06
2022-09-26T04:34:32.438Z,96030.66
2022-09-26T04:37:00.563Z,96029.03
2022-09-26T04:39:28.080Z,96023.00
2022-09-26T04:41:55.552Z,96024.22
2022-09-26T04:44:23.014Z,96021.59
2022-09-26T04:46:50.505Z,96021.59
2022-09-26T04:49:19.303Z,96020.78
2022-09-26T04:51:47.763Z,96014.75
2022-09-26T04:54:16.518Z,96022.59
2022-09-26T04:56:44.353Z,96022.00
2022-09-26T04:59:11.937Z,96016.78
2022-09-26T05:01:39.563Z,96008.13
2022-09-26T05:04:08.166Z,96008.91
2022-09-26T05:06:37.034Z,96009.94
2022-09-26T05:09:05.936Z,96010.16
2022-09-26T05:11:33.523Z,96018.00
2022-09-26T05:14:02.443Z,96008.56
2022-09-26T05:16:30.011Z,96012.97
2022-09-26T05:18:57.529Z,96000.91
2022-09-26T05:21:25.062Z,96006.13
2022-09-26T05:24:11.283Z,96005.34
2022-09-26T05:26:42.729Z,96011.38
2022-09-26T05:29:11.973Z,96005.34
2022-09-26T05:31:40.230Z,96007.13
2022-09-26T05:34:12.198Z,96014.97
2022-09-26T05:36:43.240Z,96008.16
2022-09-26T05:39:26.187Z,96004.94
2022-09-26T05:41:53.991Z,96006.75
2022-09-26T05:44:21.493Z,96003.16
2022-09-26T05:46:50.285Z,96002.34
2022-09-26T05:49:18.282Z,96002.56
2022-09-26T05:51:46.492Z,95999.16
2022-09-26T05:54:15.702Z,96003.59
2022-09-26T05:56:43.320Z,96004.56
2022-09-26T05:59:10.951Z,96006.19
2022-09-26T06:01:38.584Z,96006.41
2022-09-26T06:04:06.506Z,96000.38
2022-09-26T06:06:34.335Z,95996.13
2022-09-26T06:09:03.307Z,95992.53
2022-09-26T06:11:32.119Z,95994.72
2022-09-26T06:14:01.005Z,95995.31
2022-09-26T06:16:29.749Z,95991.25
2022-09-26T06:18:57.479Z,95996.06
2022-09-26T06:21:25.583Z,95997.69
2022-09-26T06:23:53.082Z,95993.06
2022-09-26T06:26:22.739Z,95994.44
2022-09-26T06:28:55.431Z,95993.22
2022-09-26T06:31:23.482Z,95996.44
2022-09-26T06:33:53.255Z,95991.00
2022-09-26T06:36:21.791Z,95988.19
2022-09-26T06:38:49.889Z,95992.97
2022-09-26T06:41:17.728Z,95990.16
2022-09-26T06:43:45.944Z,95985.88
2022-09-26T06:46:15.972Z,95982.88
2022-09-26T06:48:43.858Z,95979.81
2022-09-26T06:51:13.783Z,95976.34
2022-09-26T06:53:42.567Z,95977.09
2022-09-26T06:56:10.051Z,95972.06
2022-09-26T06:58:37.556Z,95970.59
2022-09-26T07:01:06.471Z,95973.59
2022-09-26T07:03:36.011Z,95971.56
2022-09-26T07:06:04.309Z,95965.69
2022-09-26T07:08:57.830Z,95972.69
2022-09-26T07:11:56.205Z,95963.63
2022-09-26T07:14:07.698Z,95961.56
2022-09-26T07:16:35.286Z,95965.94
2022-09-26T07:19:04.766Z,95963.91
2022-09-26T07:21:32.249Z,95964.50
2022-09-26T07:23:59.732Z,95965.09
2022-09-26T07:26:27.228Z,95956.00
2022-09-26T07:28:55.171Z,95953.97
2022-09-26T07:31:23.555Z,95954.31
2022-09-26T07:33:51.136Z,95951.88
2022-09-26T07:36:21.129Z,95952.81
2022-09-26T07:38:49.267Z,95951.00
2022-09-26T07:41:17.375Z,95951.59
2022-09-26T07:46:58.236Z,95946.91
2022-09-26T07:49:43.142Z,95948.53
2022-09-26T07:52:12.221Z,95947.50
2022-09-26T07:54:40.083Z,95943.28
2022-09-26T07:57:07.607Z,95946.69
2022-09-26T07:59:35.734Z,95947.28
2022-09-26T08:02:03.628Z,95940.78
2022-09-26T08:04:31.495Z,95939.34
2022-09-26T08:06:59.525Z,95940.53
2022-09-26T08:09:28.533Z,95940.31
2022-09-26T08:11:56.248Z,95942.69
2022-09-26T08:14:23.951Z,95943.44
2022-09-26T08:16:56.241Z,95942.56
2022-09-26T08:19:24.452Z,95938.84
2022-09-26T08:21:52.056Z,95943.41
2022-09-26T08:24:19.666Z,95935.13
2022-09-26T08:26:48.880Z,95943.53
2022-09-26T08:29:16.700Z,95936.06
2022-09-26T08:31:45.955Z,95937.22
2022-09-26T08:34:13.855Z,95932.91
2022-09-26T08:36:41.624Z,95937.25
2022-09-26T08:39:11.043Z,95933.91
2022-09-26T08:42:12.468Z,95941.84
2022-09-26T08:44:57.276Z,95936.03
2022-09-26T08:47:36.786Z,95936.75
2022-09-26T08:50:16.341Z,95934.72
2022-09-26T08:52:52.666Z,95929.00
2022-09-26T08:55:37.581Z,95928.78
2022-09-26T08:58:15.516Z,95929.00
2022-09-26T09:00:48.144Z,95925.59
2022-09-26T09:03:26.005Z,95920.56
2022-09-26T09:06:01.301Z,95914.72
2022-09-26T09:08:37.325Z,95905.25
2022-09-26T09:11:16.431Z,95898.84
2022-09-26T09:14:11.481Z,95895.19
2022-09-26T09:17:00.507Z,95897.25
2022-09-26T09:19:44.568Z,95901.47
2022-09-26T09:22:34.749Z,95887.88
2022-09-26T09:25:27.744Z,95881.97
2022-09-26T09:28:08.699Z,95890.31
2022-09-26T09:30:44.227Z,95886.34
2022-09-26T09:33:20.958Z,95887.59
2022-09-26T09:36:00.395Z,95892.19
2022-09-26T09:38:31.788Z,95889.44
2022-09-26T09:41:28.586Z,95890.59
2022-09-26T09:44:00.371Z,95893.66
2022-09-26T09:46:47.768Z,95896.19
2022-09-26T09:49:30.730Z,95881.66
2022-09-26T09:52:15.020Z,95889.06
2022-09-26T09:55:06.499Z,95887.81
2022-09-26T09:58:14.010Z,95874.16
2022-09-26T10:00:51.645Z,95871.25
2022-09-26T10:03:27.757Z,95872.69
2022-09-26T10:05:59.777Z,95867.25
2022-09-26T10:08:32.339Z,95859.69
2022-09-26T10:11:08.850Z,95864.19
2022-09-26T10:13:41.081Z,95863.88
2022-09-26T10:16:16.578Z,95860.81
2022-09-26T10:19:10.064Z,95862.28
2022-09-26T10:21:48.000Z,95860.50
2022-09-26T10:24:24.982Z,95855.31
2022-09-26T10:26:52.592Z,95859.81
2022-09-26T10:29:24.996Z,95858.41
2022-09-26T10:31:56.619Z,95848.13
2022-09-26T10:34:28.301Z,95854.13
2022-09-26T10:36:57.165Z,95849.66
2022-09-26T10:39:47.952Z,95841.97
2022-09-26T10:42:21.756Z,95844.06
2022-09-26T10:44:50.815Z,95843.59
2022-09-26T10:47:24.969Z,95839.97
2022-09-26T10:49:59.542Z,95837.97
2022-09-26T10:52:31.308Z,95840.19
2022-09-26T10:55:04.803Z,95831.88
2022-09-26T10:57:39.940Z,95838.06
2022-09-26T11:00:09.051Z,95833.72
2022-09-26T11:02:37.724Z,95832.50
2022-09-26T11:05:27.434Z,95833.34
2022-09-26T11:07:57.820Z,95827.13
2022-09-26T11:10:32.492Z,95823.50
2022-09-26T11:13:03.532Z,95815.97
2022-09-26T11:15:32.331Z,95810.22
2022-09-26T11:18:00.252Z,95797.88
2022-09-26T11:20:40.680Z,95802.06
2022-09-26T11:23:18.000Z,95792.56
2022-09-26T11:25:58.088Z,95779.34
2022-09-26T11:28:31.540Z,95780.34
2022-09-26T11:31:05.070Z,95782.16
2022-09-26T11:33:33.196Z,95776.41
2022-09-26T11:36:25.071Z,95767.34
2022-09-26T11:39:02.445Z,95775.88
2022-09-26T11:42:01.693Z,95768.25
2022-09-26T11:45:09.023Z,95761.81
2022-09-26T11:48:17.029Z,95752.88
2022-09-26T11:50:56.675Z,95740.53
2022-09-26T11:53:50.944Z,95727.47
2022-09-26T11:56:47.442Z,95729.41
2022-09-26T11:59:32.486Z,95717.16
2022-09-26T12:02:23.872Z,95722.47
2022-09-26T12:05:04.293Z,95715.25
2022-09-26T12:07:43.747Z,95704.13
2022-09-26T12:10:26.388Z,95694.81
2022-09-26T12:13:13.116Z,95703.69
2022-09-26T12:15:48.591Z,95692.38
2022-09-26T12:18:26.656Z,95692.09
2022-09-26T12:21:05.911Z,95691.81
2022-09-26T12:23:38.641Z,95680.88
2022-09-26T12:26:17.222Z,95670.97
2022-09-26T12:29:00.336Z,95669.50
2022-09-26T12:31:48.236Z,95663.25
2022-09-26T12:34:37.617Z,95661.22
2022-09-26T12:37:14.275Z,95641.63
2022-09-26T12:39:57.417Z,95646.44
2022-09-26T12:42:49.650Z,95633.78
2022-09-26T12:45:43.688Z,95633.56
2022-09-26T12:48:22.183Z,95632.81
2022-09-26T12:51:07.255Z,95624.88
2022-09-26T12:53:49.648Z,95630.19
2022-09-26T12:56:38.015Z,95626.75
2022-09-26T12:59:25.036Z,95629.44
2022-09-26T13:02:28.767Z,95623.06
2022-09-26T13:05:18.895Z,95612.22
2022-09-26T13:08:02.251Z,95632.34
2022-09-26T13:10:39.115Z,95619.63
2022-09-26T13:13:26.521Z,95611.72
2022-09-26T13:16:13.630Z,95606.91
2022-09-26T13:18:45.564Z,95595.78
2022-09-26T13:21:16.669Z,95591.56
2022-09-26T13:23:54.112Z,95601.06
2022-09-26T13:26:28.981Z,95599.47
2022-09-26T13:29:17.290Z,95591.00
2022-09-26T13:31:55.393Z,95602.06
2022-09-26T13:34:32.472Z,95595.19
2022-09-26T13:37:01.032Z,95581.72
2022-09-26T13:39:35.760Z,95585.66
2022-09-26T13:42:12.809Z,95588.28
2022-09-26T13:44:56.521Z,95589.34
2022-09-26T13:47:38.551Z,95578.50
2022-09-26T13:50:23.575Z,95566.59
2022-09-26T13:53:04.440Z,95558.94
2022-09-26T13:55:32.305Z,95556.28
2022-09-26T13:58:07.104Z,95556.28
2022-09-26T14:00:53.407Z,95560.28
2022-09-26T14:03:43.139Z,95560.28
2022-09-26T14:06:35.142Z,95548.63
2022-09-26T14:09:27.149Z,95558.94
2022-09-26T14:12:33.099Z,95564.47
2022-09-26T14:15:20.795Z,95553.34
2022-09-26T14:18:09.160Z,95554.38
2022-09-26T14:20:53.951Z,95549.31
2022-09-26T14:23:36.920Z,95545.84
2022-09-26T14:26:11.785Z,95548.47
2022-09-26T14:28:40.852Z,95545.81
2022-09-26T14:31:23.123Z,95543.66
2022-09-26T14:34:05.465Z,95545.75
2022-09-26T14:36:36.404Z,95542.81
2022-09-26T14:39:06.062Z,95546.72
2022-09-26T14:41:35.832Z,95550.38
2022-09-26T14:44:05.634Z,95537.66
2022-09-26T14:46:35.581Z,95537.06
2022-09-26T14:49:05.887Z,95548.66
2022-09-26T14:51:38.245Z,95539.38
2022-09-26T14:54:07.133Z,95542.00
2022-09-26T14:56:41.732Z,95541.34
2022-09-26T14:59:27.863Z,95543.19
2022-09-26T15:02:18.801Z,95542.84
2022-09-26T15:04:49.708Z,95537.25
2022-09-26T15:07:23.482Z,95537.69
2022-09-26T15:09:57.851Z,95532.38
2022-09-26T15:12:39.573Z,95532.09
2022-09-26T15:15:31.705Z,95533.63
2022-09-26T15:21:32.855Z,95535.66
2022-09-26T15:24:05.137Z,95531.66
2022-09-26T15:26:36.178Z,95540.06
2022-09-26T15:29:06.318Z,95538.16
2022-09-26T15:31:40.442Z,95528.63
2022-09-26T15:34:13.234Z,95531.75
2022-09-26T15:36:43.062Z,95516.72
2022-09-26T15:39:38.050Z,95514.78
2022-09-26T15:42:41.669Z,95526.06
2022-09-26T15:45:27.102Z,95513.34
2022-09-26T15:47:56.353Z,95519.09
2022-09-26T15:50:28.342Z,95524.06
2022-09-26T15:53:02.062Z,95529.00
2022-09-26T15:55:35.090Z,95522.16
2022-09-26T15:58:06.150Z,95526.84
2022-09-26T16:00:37.192Z,95521.06
2022-09-26T16:03:36.252Z,95523.63
2022-09-26T16:06:08.523Z,95521.50
2022-09-26T16:08:42.421Z,95510.41
2022-09-26T16:11:11.273Z,95508.03
2022-09-26T16:13:46.249Z,95509.31
2022-09-26T16:16:18.739Z,95515.06
2022-09-26T16:18:53.021Z,95509.25
2022-09-26T16:21:22.161Z,95499.72
2022-09-26T16:23:51.760Z,95505.16
2022-09-26T16:26:28.734Z,95494.81
2022-09-26T16:28:57.820Z,95480.53
2022-09-26T16:31:29.405Z,95495.53
2022-09-26T16:33:59.029Z,95490.19
2022-09-26T16:36:29.105Z,95488.84
2022-09-26T16:38:59.422Z,95492.00
2022-09-26T16:42:00.469Z,95487.19
2022-09-26T16:44:35.305Z,95494.78
2022-09-26T16:47:05.969Z,95499.72
2022-09-26T16:49:45.626Z,95491.28
2022-09-26T16:52:31.035Z,95487.31
2022-09-26T16:55:01.468Z,95481.72
2022-09-26T16:57:33.205Z,95475.38
2022-09-26T17:00:20.474Z,95469.56
2022-09-26T17:02:48.838Z,95474.50
2022-09-26T17:05:19.329Z,95474.97
2022-09-26T17:07:49.265Z,95463.63
2022-09-26T17:10:18.401Z,95466.69
2022-09-26T17:12:50.401Z,95473.47
2022-09-26T17:15:20.638Z,95468.69
2022-09-26T17:17:54.036Z,95460.25
2022-09-26T17:20:22.367Z,95456.28
2022-09-26T17:22:49.990Z,95462.31
2022-09-26T17:25:19.989Z,95457.84
2022-09-26T17:27:54.520Z,95453.41
2022-09-26T17:30:22.063Z,95448.16
2022-09-26T17:32:54.260Z,95445.53
2022-09-26T17:35:25.730Z,95444.47
2022-09-26T17:37:53.841Z,95439.72
2022-09-26T17:40:24.973Z,95447.84
2022-09-26T17:42:56.506Z,95437.00
2022-09-26T17:45:29.973Z,95436.44
2022-09-26T17:48:00.179Z,95429.84
2022-09-26T17:50:31.221Z,95430.09
2022-09-26T17:53:00.782Z,95426.66
2022-09-26T17:55:29.232Z,95424.28
2022-09-26T17:57:59.644Z,95419.25
2022-09-26T18:00:31.793Z,95410.81
2022-09-26T18:03:03.829Z,95414.72
2022-09-26T18:05:34.886Z,95414.16
2022-09-26T18:08:10.129Z,95411.00
2022-09-26T18:10:43.111Z,95412.03
2022-09-26T18:13:15.866Z,95414.09
2022-09-26T18:15:43.353Z,95407.25
2022-09-26T18:18:14.253Z,95404.06
2022-09-26T18:20:42.113Z,95392.22
2022-09-26T18:23:16.023Z,95390.84
2022-09-26T18:25:45.393Z,95383.44
2022-09-26T18:28:16.912Z,95383.38
2022-09-26T18:30:48.640Z,95389.34
2022-09-26T18:33:19.220Z,95381.16
2022-09-26T18:35:49.686Z,95378.78
2022-09-26T18:38:18.843Z,95372.16
2022-09-26T18:40:52.021Z,95376.38
2022-09-26T18:43:23.833Z,95371.13
2022-09-26T18:45:51.887Z,95370.09
2022-09-26T18:48:24.558Z,95364.59
2022-09-26T18:50:58.206Z,95367.00
2022-09-26T18:53:42.199Z,95363.31
2022-09-26T18:56:28.280Z,95354.66
2022-09-26T18:58:58.246Z,95353.31
2022-09-26T19:01:31.074Z,95354.59
2022-09-26T19:04:01.335Z,95346.94
2022-09-26T19:06:32.865Z,95343.97
2022-09-26T19:09:02.700Z,95349.16
2022-09-26T19:11:32.520Z,95348.28
2022-09-26T19:14:11.759Z,95345.03
2022-09-26T19:16:39.294Z,95336.03
2022-09-26T19:19:06.789Z,95332.28
2022-09-26T19:21:37.394Z,95332.78
2022-09-26T19:24:09.624Z,95333.28
2022-09-26T19:26:39.851Z,95334.28
2022-09-26T19:29:13.664Z,95333.16
2022-09-26T19:31:41.894Z,95325.78
2022-09-26T19:34:13.817Z,95322.59
2022-09-26T19:36:41.357Z,95313.34
2022-09-26T19:39:13.291Z,95312.53
2022-09-26T19:41:40.776Z,95307.78
2022-09-26T19:44:09.704Z,95307.44
2022-09-26T19:46:38.479Z,95295.59
2022-09-26T19:49:06.697Z,95309.19
2022-09-26T19:51:39.651Z,95294.41
2022-09-26T19:54:07.979Z,95291.44
2022-09-26T19:56:35.596Z,95283.28
2022-09-26T19:59:03.216Z,95280.09
2022-09-26T20:01:32.211Z,95276.13
2022-09-26T20:03:59.816Z,95271.34
2022-09-26T20:06:27.383Z,95269.19
2022-09-26T20:09:01.238Z,95264.66
2022-09-26T20:11:29.496Z,95271.41
2022-09-26T20:14:15.081Z,95270.84
2022-09-26T20:16:44.139Z,95271.34
2022-09-26T20:19:17.256Z,95263.47
2022-09-26T20:21:44.933Z,95255.59
2022-09-26T20:24:16.456Z,95256.63
2022-09-26T20:26:44.308Z,95252.16
2022-09-26T20:29:14.126Z,95255.34
2022-09-26T20:31:43.664Z,95254.56
2022-09-26T20:34:12.665Z,95243.84
2022-09-26T20:36:43.325Z,95243.84
2022-09-26T20:39:15.324Z,95234.63
2022-09-26T20:41:43.839Z,95236.44
2022-09-26T20:44:14.917Z,95232.47
2022-09-26T20:46:48.467Z,95223.03
2022-09-26T20:49:22.530Z,95224.59
2022-09-26T20:51:51.057Z,95223.81
2022-09-26T20:54:26.307Z,95220.13
2022-09-26T20:56:54.564Z,95219.34
2022-09-26T20:59:22.443Z,95214.09
2022-09-26T21:01:50.433Z,95207.28
2022-09-26T21:04:23.541Z,95209.34
2022-09-26T21:06:51.174Z,95216.16
2022-09-26T21:09:20.784Z,95208.53
2022-09-26T21:11:48.873Z,95203.53
2022-09-26T21:14:16.539Z,95200.13
2022-09-26T21:16:46.665Z,95190.91
2022-09-26T21:19:23.535Z,95182.25
2022-09-26T21:21:51.947Z,95185.66
2022-09-26T21:24:25.424Z,95180.41
2022-09-26T21:26:53.188Z,95174.16
2022-09-26T21:29:20.785Z,95182.56
2022-09-26T21:31:51.295Z,95178.34
2022-09-26T21:34:21.433Z,95172.53
2022-09-26T21:36:52.019Z,95172.81
2022-09-26T21:39:20.422Z,95165.16
2022-09-26T21:41:50.595Z,95163.34
2022-09-26T21:44:24.623Z,95167.78
2022-09-26T21:46:52.267Z,95163.03
2022-09-26T21:49:19.836Z,95152.78
2022-09-26T21:51:53.224Z,95155.41
2022-09-26T21:54:24.981Z,95154.34
2022-09-26T21:56:58.188Z,95152.28
2022-09-26T21:59:25.963Z,95153.09
2022-09-26T22:01:53.604Z,95150.22
2022-09-26T22:04:22.420Z,95163.09
2022-09-26T22:06:51.322Z,95163.34
2022-09-26T22:09:18.861Z,95170.41
2022-09-26T22:11:46.487Z,95165.97
2022-09-26T22:14:14.176Z,95167.56
2022-09-26T22:16:41.831Z,95150.78
2022-09-26T22:19:09.836Z,95145.88
2022-09-26T22:21:37.473Z,95155.09
2022-09-26T22:24:06.628Z,95145.38
2022-09-26T22:26:34.183Z,95146.72
2022-09-26T22:29:01.799Z,95142.31
2022-09-26T22:31:29.479Z,95129.19
2022-09-26T22:33:57.532Z,95135.22
2022-09-26T22:36:25.205Z,95128.16
2022-09-26T22:38:54.718Z,95122.34
2022-09-26T22:41:23.725Z,95121.78
2022-09-26T22:43:53.419Z,95116.56
2022-09-26T22:46:21.258Z,95111.31
2022-09-26T22:48:49.082Z,95119.72
2022-09-26T22:51:18.153Z,95119.72
2022-09-26T22:53:45.824Z,95118.94
2022-09-26T22:56:16.534Z,95117.09
2022-09-26T22:58:47.795Z,95117.09
2022-09-26T23:01:18.562Z,95104.50
2022-09-26T23:03:46.435Z,95098.69
2022-09-26T23:06:14.033Z,95100.53
2022-09-26T23:08:41.608Z,95097.34
2022-09-26T23:11:11.605Z,95102.03
2022-09-26T23:13:40.039Z,95093.34
2022-09-26T23:16:11.288Z,95091.78
2022-09-26T23:18:40.072Z,95080.72
2022-09-26T23:21:09.172Z,95088.59
2022-09-26T23:23:37.322Z,95079.16
2022-09-26T23:26:07.108Z,95071.31
2022-09-26T23:28:35.015Z,95062.88
2022-09-26T23:31:07.253Z,95052.84
2022-09-26T23:33:36.603Z,95045.50
2022-09-26T23:36:04.932Z,95048.09
2022-09-26T23:38:32.824Z,95043.41
2022-09-26T23:41:00.774Z,95039.19
2022-09-26T23:43:28.374Z,95034.44
2022-09-26T23:45:56.057Z,95027.59
2022-09-26T23:48:24.014Z,95031.28
2022-09-26T23:50:53.232Z,95032.53
2022-09-26T23:53:21.186Z,95024.13
2022-09-26T23:55:48.806Z,95028.59
2022-09-26T23:58:16.777Z,95021.75
